sensor_id;sensor_type;location;lat;lon;timestamp;P1;durP1;ratioP1;P2;durP2;ratioP2
49948;SDS011;35840;45.982;8.890;2023-04-24T00:01:14;0.50;;;0.50;;
49948;SDS011;35840;45.982;8.890;2023-04-24T00:03:41;0.90;;;0.90;;
49948;SDS011;35840;45.982;8.890;2023-04-24T00:06:08;0.85;;;0.60;;
49948;SDS011;35840;45.982;8.890;2023-04-24T00:08:35;0.73;;;0.55;;
49948;SDS011;35840;45.982;8.890;2023-04-24T00:11:02;1.10;;;0.75;;
49948;SDS011;35840;45.982;8.890;2023-04-24T00:13:29;0.38;;;0.30;;
49948;SDS011;35840;45.982;8.890;2023-04-24T00:15:56;1.10;;;0.57;;
49948;SDS011;35840;45.982;8.890;2023-04-24T00:18:23;2.42;;;0.60;;
49948;SDS011;35840;45.982;8.890;2023-04-24T00:20:49;0.85;;;0.40;;
49948;SDS011;35840;45.982;8.890;2023-04-24T00:23:16;1.95;;;0.70;;
49948;SDS011;35840;45.982;8.890;2023-04-24T00:25:43;2.53;;;0.80;;
49948;SDS011;35840;45.982;8.890;2023-04-24T00:28:09;1.65;;;0.68;;
49948;SDS011;35840;45.982;8.890;2023-04-24T00:30:36;1.23;;;0.60;;
49948;SDS011;35840;45.982;8.890;2023-04-24T00:33:03;2.40;;;0.70;;
49948;SDS011;35840;45.982;8.890;2023-04-24T00:35:31;3.63;;;0.80;;
49948;SDS011;35840;45.982;8.890;2023-04-24T00:37:57;1.27;;;0.50;;
49948;SDS011;35840;45.982;8.890;2023-04-24T00:40:24;2.05;;;1.00;;
49948;SDS011;35840;45.982;8.890;2023-04-24T00:42:51;0.65;;;0.57;;
49948;SDS011;35840;45.982;8.890;2023-04-24T00:45:18;2.53;;;0.88;;
49948;SDS011;35840;45.982;8.890;2023-04-24T00:47:45;2.60;;;0.70;;
49948;SDS011;35840;45.982;8.890;2023-04-24T00:50:12;0.93;;;0.60;;
49948;SDS011;35840;45.982;8.890;2023-04-24T00:52:41;1.40;;;0.60;;
49948;SDS011;35840;45.982;8.890;2023-04-24T00:55:08;0.60;;;0.60;;
49948;SDS011;35840;45.982;8.890;2023-04-24T00:57:35;1.83;;;0.60;;
49948;SDS011;35840;45.982;8.890;2023-04-24T01:00:03;3.05;;;0.77;;
49948;SDS011;35840;45.982;8.890;2023-04-24T01:02:32;5.43;;;0.70;;
49948;SDS011;35840;45.982;8.890;2023-04-24T01:05:01;1.92;;;0.75;;
49948;SDS011;35840;45.982;8.890;2023-04-24T01:07:28;0.85;;;0.60;;
49948;SDS011;35840;45.982;8.890;2023-04-24T01:09:55;0.85;;;0.70;;
49948;SDS011;35840;45.982;8.890;2023-04-24T01:12:24;1.20;;;0.73;;
49948;SDS011;35840;45.982;8.890;2023-04-24T01:14:50;3.15;;;0.90;;
49948;SDS011;35840;45.982;8.890;2023-04-24T01:17:17;3.40;;;0.70;;
49948;SDS011;35840;45.982;8.890;2023-04-24T01:19:46;1.20;;;0.85;;
49948;SDS011;35840;45.982;8.890;2023-04-24T01:22:13;2.10;;;0.80;;
49948;SDS011;35840;45.982;8.890;2023-04-24T01:24:41;3.25;;;0.82;;
49948;SDS011;35840;45.982;8.890;2023-04-24T01:27:11;1.30;;;0.60;;
49948;SDS011;35840;45.982;8.890;2023-04-24T01:29:38;1.88;;;1.15;;
49948;SDS011;35840;45.982;8.890;2023-04-24T01:32:05;1.50;;;1.00;;
49948;SDS011;35840;45.982;8.890;2023-04-24T01:34:33;2.28;;;0.88;;
49948;SDS011;35840;45.982;8.890;2023-04-24T01:37:00;3.13;;;0.60;;
49948;SDS011;35840;45.982;8.890;2023-04-24T01:39:27;1.42;;;0.93;;
49948;SDS011;35840;45.982;8.890;2023-04-24T01:41:55;1.00;;;0.80;;
49948;SDS011;35840;45.982;8.890;2023-04-24T01:44:22;3.47;;;0.77;;
49948;SDS011;35840;45.982;8.890;2023-04-24T01:46:49;1.10;;;0.88;;
49948;SDS011;35840;45.982;8.890;2023-04-24T01:49:17;0.95;;;0.70;;
49948;SDS011;35840;45.982;8.890;2023-04-24T01:51:44;2.70;;;0.98;;
49948;SDS011;35840;45.982;8.890;2023-04-24T01:54:11;2.33;;;1.20;;
49948;SDS011;35840;45.982;8.890;2023-04-24T01:56:40;5.68;;;1.52;;
49948;SDS011;35840;45.982;8.890;2023-04-24T01:59:10;2.60;;;1.25;;
49948;SDS011;35840;45.982;8.890;2023-04-24T02:01:37;2.42;;;1.15;;
49948;SDS011;35840;45.982;8.890;2023-04-24T02:04:05;1.38;;;1.00;;
49948;SDS011;35840;45.982;8.890;2023-04-24T02:06:34;2.40;;;1.17;;
49948;SDS011;35840;45.982;8.890;2023-04-24T02:09:01;2.15;;;0.80;;
49948;SDS011;35840;45.982;8.890;2023-04-24T02:11:29;5.15;;;1.27;;
49948;SDS011;35840;45.982;8.890;2023-04-24T02:13:56;1.73;;;1.05;;
49948;SDS011;35840;45.982;8.890;2023-04-24T02:16:23;2.70;;;0.85;;
49948;SDS011;35840;45.982;8.890;2023-04-24T02:18:51;1.52;;;0.95;;
49948;SDS011;35840;45.982;8.890;2023-04-24T02:21:18;2.78;;;0.95;;
49948;SDS011;35840;45.982;8.890;2023-04-24T02:23:45;1.10;;;0.90;;
49948;SDS011;35840;45.982;8.890;2023-04-24T02:26:12;1.92;;;0.90;;
49948;SDS011;35840;45.982;8.890;2023-04-24T02:28:39;0.73;;;0.73;;
49948;SDS011;35840;45.982;8.890;2023-04-24T02:31:05;2.92;;;1.20;;
49948;SDS011;35840;45.982;8.890;2023-04-24T02:33:32;3.58;;;0.93;;
49948;SDS011;35840;45.982;8.890;2023-04-24T02:35:59;4.95;;;0.85;;
49948;SDS011;35840;45.982;8.890;2023-04-24T02:38:26;2.08;;;1.00;;
49948;SDS011;35840;45.982;8.890;2023-04-24T02:40:53;0.90;;;0.90;;
49948;SDS011;35840;45.982;8.890;2023-04-24T02:43:20;1.83;;;1.02;;
49948;SDS011;35840;45.982;8.890;2023-04-24T02:45:47;2.92;;;1.48;;
49948;SDS011;35840;45.982;8.890;2023-04-24T02:48:14;1.73;;;1.05;;
49948;SDS011;35840;45.982;8.890;2023-04-24T02:50:41;4.88;;;1.17;;
49948;SDS011;35840;45.982;8.890;2023-04-24T02:53:07;1.33;;;1.10;;
49948;SDS011;35840;45.982;8.890;2023-04-24T02:55:34;2.10;;;1.27;;
49948;SDS011;35840;45.982;8.890;2023-04-24T02:58:01;1.35;;;1.02;;
49948;SDS011;35840;45.982;8.890;2023-04-24T03:00:28;3.67;;;1.00;;
49948;SDS011;35840;45.982;8.890;2023-04-24T03:02:54;1.23;;;1.00;;
49948;SDS011;35840;45.982;8.890;2023-04-24T03:05:21;3.90;;;1.73;;
49948;SDS011;35840;45.982;8.890;2023-04-24T03:07:48;1.38;;;1.13;;
49948;SDS011;35840;45.982;8.890;2023-04-24T03:10:15;10.50;;;2.08;;
49948;SDS011;35840;45.982;8.890;2023-04-24T03:12:42;1.10;;;1.00;;
49948;SDS011;35840;45.982;8.890;2023-04-24T03:15:08;1.48;;;1.00;;
49948;SDS011;35840;45.982;8.890;2023-04-24T03:17:36;2.40;;;0.73;;
49948;SDS011;35840;45.982;8.890;2023-04-24T03:20:03;2.90;;;1.10;;
49948;SDS011;35840;45.982;8.890;2023-04-24T03:22:32;1.48;;;0.90;;
49948;SDS011;35840;45.982;8.890;2023-04-24T03:25:01;0.80;;;0.70;;
49948;SDS011;35840;45.982;8.890;2023-04-24T03:27:29;1.20;;;0.80;;
49948;SDS011;35840;45.982;8.890;2023-04-24T03:30:02;1.95;;;1.00;;
49948;SDS011;35840;45.982;8.890;2023-04-24T03:32:41;1.42;;;1.23;;
49948;SDS011;35840;45.982;8.890;2023-04-24T03:35:11;1.02;;;0.85;;
49948;SDS011;35840;45.982;8.890;2023-04-24T03:37:38;2.35;;;0.82;;
49948;SDS011;35840;45.982;8.890;2023-04-24T03:40:25;3.50;;;0.82;;
49948;SDS011;35840;45.982;8.890;2023-04-24T03:42:52;0.88;;;0.88;;
49948;SDS011;35840;45.982;8.890;2023-04-24T03:45:19;2.38;;;1.13;;
49948;SDS011;35840;45.982;8.890;2023-04-24T03:47:48;2.38;;;0.82;;
49948;SDS011;35840;45.982;8.890;2023-04-24T03:50:15;0.85;;;0.70;;
49948;SDS011;35840;45.982;8.890;2023-04-24T03:52:43;1.70;;;0.90;;
49948;SDS011;35840;45.982;8.890;2023-04-24T03:55:27;1.80;;;1.00;;
49948;SDS011;35840;45.982;8.890;2023-04-24T03:57:54;2.55;;;0.82;;
49948;SDS011;35840;45.982;8.890;2023-04-24T04:00:21;2.55;;;0.63;;
49948;SDS011;35840;45.982;8.890;2023-04-24T04:03:00;1.33;;;1.00;;
49948;SDS011;35840;45.982;8.890;2023-04-24T04:05:27;0.93;;;0.88;;
49948;SDS011;35840;45.982;8.890;2023-04-24T04:07:55;4.25;;;0.82;;
49948;SDS011;35840;45.982;8.890;2023-04-24T04:10:22;1.00;;;0.68;;
49948;SDS011;35840;45.982;8.890;2023-04-24T04:12:49;1.38;;;1.23;;
49948;SDS011;35840;45.982;8.890;2023-04-24T04:15:16;1.73;;;1.02;;
49948;SDS011;35840;45.982;8.890;2023-04-24T04:17:43;3.50;;;1.27;;
49948;SDS011;35840;45.982;8.890;2023-04-24T04:20:10;2.10;;;0.80;;
49948;SDS011;35840;45.982;8.890;2023-04-24T04:22:38;1.38;;;1.27;;
49948;SDS011;35840;45.982;8.890;2023-04-24T04:25:11;2.83;;;1.10;;
49948;SDS011;35840;45.982;8.890;2023-04-24T04:27:40;2.70;;;1.27;;
49948;SDS011;35840;45.982;8.890;2023-04-24T04:30:10;2.33;;;0.77;;
49948;SDS011;35840;45.982;8.890;2023-04-24T04:32:47;0.95;;;0.70;;
49948;SDS011;35840;45.982;8.890;2023-04-24T04:35:14;4.20;;;0.93;;
49948;SDS011;35840;45.982;8.890;2023-04-24T04:37:41;1.92;;;1.02;;
49948;SDS011;35840;45.982;8.890;2023-04-24T04:40:23;1.60;;;1.30;;
49948;SDS011;35840;45.982;8.890;2023-04-24T04:42:56;2.50;;;0.80;;
49948;SDS011;35840;45.982;8.890;2023-04-24T04:45:27;2.60;;;0.60;;
49948;SDS011;35840;45.982;8.890;2023-04-24T04:48:13;2.85;;;0.73;;
49948;SDS011;35840;45.982;8.890;2023-04-24T04:50:40;2.75;;;0.90;;
49948;SDS011;35840;45.982;8.890;2023-04-24T04:53:07;1.33;;;0.35;;
49948;SDS011;35840;45.982;8.890;2023-04-24T04:55:37;1.17;;;0.63;;
49948;SDS011;35840;45.982;8.890;2023-04-24T04:58:09;1.45;;;0.80;;
49948;SDS011;35840;45.982;8.890;2023-04-24T05:00:36;0.70;;;0.70;;
49948;SDS011;35840;45.982;8.890;2023-04-24T05:03:15;1.85;;;1.10;;
49948;SDS011;35840;45.982;8.890;2023-04-24T05:05:54;3.10;;;0.80;;
49948;SDS011;35840;45.982;8.890;2023-04-24T05:08:21;6.20;;;1.50;;
49948;SDS011;35840;45.982;8.890;2023-04-24T05:10:54;2.55;;;1.73;;
49948;SDS011;35840;45.982;8.890;2023-04-24T05:13:22;1.48;;;1.38;;
49948;SDS011;35840;45.982;8.890;2023-04-24T05:15:52;1.83;;;1.33;;
49948;SDS011;35840;45.982;8.890;2023-04-24T05:18:19;3.45;;;1.85;;
49948;SDS011;35840;45.982;8.890;2023-04-24T05:20:47;1.88;;;1.50;;
49948;SDS011;35840;45.982;8.890;2023-04-24T05:23:14;0.85;;;0.85;;
49948;SDS011;35840;45.982;8.890;2023-04-24T05:25:43;2.33;;;0.80;;
49948;SDS011;35840;45.982;8.890;2023-04-24T05:28:11;4.35;;;1.02;;
49948;SDS011;35840;45.982;8.890;2023-04-24T05:30:38;2.15;;;0.95;;
49948;SDS011;35840;45.982;8.890;2023-04-24T05:33:05;2.28;;;0.82;;
49948;SDS011;35840;45.982;8.890;2023-04-24T05:35:34;0.70;;;0.70;;
49948;SDS011;35840;45.982;8.890;2023-04-24T05:38:01;1.08;;;0.93;;
49948;SDS011;35840;45.982;8.890;2023-04-24T05:40:27;2.70;;;0.70;;
49948;SDS011;35840;45.982;8.890;2023-04-24T05:42:54;1.10;;;0.80;;
49948;SDS011;35840;45.982;8.890;2023-04-24T05:45:23;1.40;;;0.80;;
49948;SDS011;35840;45.982;8.890;2023-04-24T05:47:50;5.40;;;0.88;;
49948;SDS011;35840;45.982;8.890;2023-04-24T05:50:18;1.65;;;0.63;;
49948;SDS011;35840;45.982;8.890;2023-04-24T05:52:45;2.38;;;0.82;;
49948;SDS011;35840;45.982;8.890;2023-04-24T05:55:22;1.45;;;0.88;;
49948;SDS011;35840;45.982;8.890;2023-04-24T05:57:50;1.38;;;0.85;;
49948;SDS011;35840;45.982;8.890;2023-04-24T06:00:17;1.30;;;1.20;;
49948;SDS011;35840;45.982;8.890;2023-04-24T06:02:54;1.73;;;1.00;;
49948;SDS011;35840;45.982;8.890;2023-04-24T06:05:22;3.95;;;1.50;;
49948;SDS011;35840;45.982;8.890;2023-04-24T06:07:52;1.50;;;1.30;;
49948;SDS011;35840;45.982;8.890;2023-04-24T06:10:21;2.00;;;1.30;;
49948;SDS011;35840;45.982;8.890;2023-04-24T06:12:49;2.10;;;1.90;;
49948;SDS011;35840;45.982;8.890;2023-04-24T06:15:17;2.20;;;1.80;;
49948;SDS011;35840;45.982;8.890;2023-04-24T06:17:50;1.45;;;1.35;;
49948;SDS011;35840;45.982;8.890;2023-04-24T06:20:17;2.35;;;1.40;;
49948;SDS011;35840;45.982;8.890;2023-04-24T06:22:44;3.10;;;1.70;;
49948;SDS011;35840;45.982;8.890;2023-04-24T06:25:11;2.75;;;1.73;;
49948;SDS011;35840;45.982;8.890;2023-04-24T06:27:38;4.15;;;2.10;;
49948;SDS011;35840;45.982;8.890;2023-04-24T06:30:07;2.13;;;1.42;;
49948;SDS011;35840;45.982;8.890;2023-04-24T06:32:34;2.08;;;1.83;;
49948;SDS011;35840;45.982;8.890;2023-04-24T06:35:01;4.82;;;1.75;;
49948;SDS011;35840;45.982;8.890;2023-04-24T06:37:27;4.63;;;2.05;;
49948;SDS011;35840;45.982;8.890;2023-04-24T06:39:55;1.52;;;1.23;;
49948;SDS011;35840;45.982;8.890;2023-04-24T06:42:21;1.60;;;0.95;;
49948;SDS011;35840;45.982;8.890;2023-04-24T06:44:48;1.13;;;0.80;;
49948;SDS011;35840;45.982;8.890;2023-04-24T06:47:15;2.10;;;1.05;;
49948;SDS011;35840;45.982;8.890;2023-04-24T06:49:42;1.65;;;1.00;;
49948;SDS011;35840;45.982;8.890;2023-04-24T06:52:09;1.05;;;0.90;;
49948;SDS011;35840;45.982;8.890;2023-04-24T06:54:36;1.33;;;1.23;;
49948;SDS011;35840;45.982;8.890;2023-04-24T06:57:03;1.33;;;0.93;;
49948;SDS011;35840;45.982;8.890;2023-04-24T06:59:29;0.60;;;0.60;;
49948;SDS011;35840;45.982;8.890;2023-04-24T07:01:57;1.27;;;0.82;;
49948;SDS011;35840;45.982;8.890;2023-04-24T07:04:24;1.13;;;1.02;;
49948;SDS011;35840;45.982;8.890;2023-04-24T07:06:52;2.47;;;0.70;;
49948;SDS011;35840;45.982;8.890;2023-04-24T07:09:20;0.65;;;0.65;;
49948;SDS011;35840;45.982;8.890;2023-04-24T07:11:48;1.65;;;0.85;;
49948;SDS011;35840;45.982;8.890;2023-04-24T07:14:15;5.78;;;0.60;;
49948;SDS011;35840;45.982;8.890;2023-04-24T07:16:42;3.83;;;0.80;;
49948;SDS011;35840;45.982;8.890;2023-04-24T07:19:09;4.07;;;0.80;;
49948;SDS011;35840;45.982;8.890;2023-04-24T07:21:35;0.90;;;0.80;;
49948;SDS011;35840;45.982;8.890;2023-04-24T07:24:02;3.30;;;0.70;;
49948;SDS011;35840;45.982;8.890;2023-04-24T07:26:29;0.90;;;0.80;;
49948;SDS011;35840;45.982;8.890;2023-04-24T07:28:57;1.10;;;0.70;;
49948;SDS011;35840;45.982;8.890;2023-04-24T07:31:23;1.63;;;0.70;;
49948;SDS011;35840;45.982;8.890;2023-04-24T07:33:50;12.48;;;1.95;;
49948;SDS011;35840;45.982;8.890;2023-04-24T07:36:17;8.43;;;1.15;;
49948;SDS011;35840;45.982;8.890;2023-04-24T07:38:45;3.42;;;0.60;;
49948;SDS011;35840;45.982;8.890;2023-04-24T07:41:12;1.80;;;0.50;;
49948;SDS011;35840;45.982;8.890;2023-04-24T07:43:40;1.13;;;0.47;;
49948;SDS011;35840;45.982;8.890;2023-04-24T07:46:08;0.40;;;0.40;;
49948;SDS011;35840;45.982;8.890;2023-04-24T07:48:35;0.60;;;0.40;;
49948;SDS011;35840;45.982;8.890;2023-04-24T07:51:02;0.60;;;0.60;;
49948;SDS011;35840;45.982;8.890;2023-04-24T07:53:29;1.63;;;0.75;;
49948;SDS011;35840;45.982;8.890;2023-04-24T07:55:56;0.77;;;0.65;;
49948;SDS011;35840;45.982;8.890;2023-04-24T07:58:23;0.68;;;0.60;;
49948;SDS011;35840;45.982;8.890;2023-04-24T08:00:50;1.50;;;0.50;;
49948;SDS011;35840;45.982;8.890;2023-04-24T08:03:17;1.83;;;0.60;;
49948;SDS011;35840;45.982;8.890;2023-04-24T08:05:46;0.70;;;0.60;;
49948;SDS011;35840;45.982;8.890;2023-04-24T08:08:13;0.60;;;0.43;;
49948;SDS011;35840;45.982;8.890;2023-04-24T08:10:40;0.40;;;0.40;;
49948;SDS011;35840;45.982;8.890;2023-04-24T08:13:07;1.10;;;0.52;;
49948;SDS011;35840;45.982;8.890;2023-04-24T08:15:33;0.73;;;0.60;;
49948;SDS011;35840;45.982;8.890;2023-04-24T08:18:01;0.60;;;0.43;;
49948;SDS011;35840;45.982;8.890;2023-04-24T08:20:28;2.30;;;0.38;;
49948;SDS011;35840;45.982;8.890;2023-04-24T08:22:54;2.95;;;0.70;;
49948;SDS011;35840;45.982;8.890;2023-04-24T08:25:22;0.90;;;0.40;;
49948;SDS011;35840;45.982;8.890;2023-04-24T08:27:51;0.60;;;0.60;;
49948;SDS011;35840;45.982;8.890;2023-04-24T08:30:18;0.95;;;0.47;;
49948;SDS011;35840;45.982;8.890;2023-04-24T08:32:45;0.60;;;0.60;;
49948;SDS011;35840;45.982;8.890;2023-04-24T08:35:12;2.58;;;0.55;;
49948;SDS011;35840;45.982;8.890;2023-04-24T08:37:38;1.67;;;0.70;;
49948;SDS011;35840;45.982;8.890;2023-04-24T08:40:06;0.50;;;0.50;;
49948;SDS011;35840;45.982;8.890;2023-04-24T08:42:38;3.60;;;0.50;;
49948;SDS011;35840;45.982;8.890;2023-04-24T08:45:06;2.78;;;1.00;;
49948;SDS011;35840;45.982;8.890;2023-04-24T08:47:33;0.60;;;0.60;;
49948;SDS011;35840;45.982;8.890;2023-04-24T08:50:02;0.40;;;0.40;;
49948;SDS011;35840;45.982;8.890;2023-04-24T08:52:29;2.20;;;0.57;;
49948;SDS011;35840;45.982;8.890;2023-04-24T08:54:56;2.30;;;0.70;;
49948;SDS011;35840;45.982;8.890;2023-04-24T08:57:23;0.88;;;0.50;;
49948;SDS011;35840;45.982;8.890;2023-04-24T08:59:52;1.17;;;0.60;;
49948;SDS011;35840;45.982;8.890;2023-04-24T09:02:20;0.55;;;0.43;;
49948;SDS011;35840;45.982;8.890;2023-04-24T09:04:47;0.55;;;0.55;;
49948;SDS011;35840;45.982;8.890;2023-04-24T09:07:16;0.77;;;0.47;;
49948;SDS011;35840;45.982;8.890;2023-04-24T09:09:44;2.80;;;0.50;;
49948;SDS011;35840;45.982;8.890;2023-04-24T09:12:11;1.10;;;0.40;;
49948;SDS011;35840;45.982;8.890;2023-04-24T09:14:38;0.80;;;0.70;;
49948;SDS011;35840;45.982;8.890;2023-04-24T09:17:09;0.50;;;0.50;;
49948;SDS011;35840;45.982;8.890;2023-04-24T09:19:36;0.93;;;0.63;;
49948;SDS011;35840;45.982;8.890;2023-04-24T09:22:06;0.32;;;0.32;;
49948;SDS011;35840;45.982;8.890;2023-04-24T09:24:34;0.63;;;0.30;;
49948;SDS011;35840;45.982;8.890;2023-04-24T09:27:01;0.68;;;0.50;;
49948;SDS011;35840;45.982;8.890;2023-04-24T09:29:28;0.63;;;0.60;;
49948;SDS011;35840;45.982;8.890;2023-04-24T09:31:55;1.00;;;0.63;;
49948;SDS011;35840;45.982;8.890;2023-04-24T09:34:23;1.70;;;0.65;;
49948;SDS011;35840;45.982;8.890;2023-04-24T09:36:51;1.50;;;0.60;;
49948;SDS011;35840;45.982;8.890;2023-04-24T09:39:18;5.32;;;1.02;;
49948;SDS011;35840;45.982;8.890;2023-04-24T09:41:52;0.55;;;0.40;;
49948;SDS011;35840;45.982;8.890;2023-04-24T09:44:21;1.42;;;0.90;;
49948;SDS011;35840;45.982;8.890;2023-04-24T09:46:50;1.55;;;0.63;;
49948;SDS011;35840;45.982;8.890;2023-04-24T09:49:27;1.55;;;0.77;;
49948;SDS011;35840;45.982;8.890;2023-04-24T09:52:03;0.75;;;0.60;;
49948;SDS011;35840;45.982;8.890;2023-04-24T09:54:31;0.95;;;0.50;;
49948;SDS011;35840;45.982;8.890;2023-04-24T09:56:58;0.57;;;0.57;;
49948;SDS011;35840;45.982;8.890;2023-04-24T09:59:27;0.60;;;0.60;;
49948;SDS011;35840;45.982;8.890;2023-04-24T10:01:54;0.80;;;0.50;;
49948;SDS011;35840;45.982;8.890;2023-04-24T10:04:23;3.80;;;0.60;;
49948;SDS011;35840;45.982;8.890;2023-04-24T10:06:55;2.13;;;0.60;;
49948;SDS011;35840;45.982;8.890;2023-04-24T10:09:24;10.00;;;0.75;;
49948;SDS011;35840;45.982;8.890;2023-04-24T10:11:52;1.42;;;0.38;;
49948;SDS011;35840;45.982;8.890;2023-04-24T10:14:21;0.90;;;0.55;;
49948;SDS011;35840;45.982;8.890;2023-04-24T10:16:49;1.15;;;0.50;;
49948;SDS011;35840;45.982;8.890;2023-04-24T10:19:19;2.28;;;0.93;;
49948;SDS011;35840;45.982;8.890;2023-04-24T10:21:46;1.50;;;0.45;;
49948;SDS011;35840;45.982;8.890;2023-04-24T10:24:14;7.00;;;0.70;;
49948;SDS011;35840;45.982;8.890;2023-04-24T10:26:43;1.58;;;0.90;;
49948;SDS011;35840;45.982;8.890;2023-04-24T10:29:11;2.28;;;0.60;;
49948;SDS011;35840;45.982;8.890;2023-04-24T10:31:39;2.00;;;0.50;;
49948;SDS011;35840;45.982;8.890;2023-04-24T10:34:06;0.32;;;0.32;;
49948;SDS011;35840;45.982;8.890;2023-04-24T10:36:35;0.82;;;0.40;;
49948;SDS011;35840;45.982;8.890;2023-04-24T10:39:09;2.78;;;1.15;;
49948;SDS011;35840;45.982;8.890;2023-04-24T10:41:39;0.52;;;0.50;;
49948;SDS011;35840;45.982;8.890;2023-04-24T10:44:06;1.08;;;0.80;;
49948;SDS011;35840;45.982;8.890;2023-04-24T10:46:35;0.80;;;0.80;;
49948;SDS011;35840;45.982;8.890;2023-04-24T10:49:06;2.03;;;0.80;;
49948;SDS011;35840;45.982;8.890;2023-04-24T10:51:50;1.45;;;0.90;;
49948;SDS011;35840;45.982;8.890;2023-04-24T10:54:26;0.90;;;0.70;;
49948;SDS011;35840;45.982;8.890;2023-04-24T10:59:46;0.77;;;0.63;;
49948;SDS011;35840;45.982;8.890;2023-04-24T11:02:18;0.35;;;0.35;;
49948;SDS011;35840;45.982;8.890;2023-04-24T11:04:45;0.30;;;0.30;;
49948;SDS011;35840;45.982;8.890;2023-04-24T11:07:12;1.17;;;0.30;;
49948;SDS011;35840;45.982;8.890;2023-04-24T11:09:39;1.25;;;0.50;;
49948;SDS011;35840;45.982;8.890;2023-04-24T11:12:10;0.75;;;0.40;;
49948;SDS011;35840;45.982;8.890;2023-04-24T11:17:31;0.52;;;0.52;;
49948;SDS011;35840;45.982;8.890;2023-04-24T11:20:01;5.50;;;0.90;;
49948;SDS011;35840;45.982;8.890;2023-04-24T11:22:50;0.25;;;0.25;;
49948;SDS011;35840;45.982;8.890;2023-04-24T11:25:21;0.65;;;0.20;;
49948;SDS011;35840;45.982;8.890;2023-04-24T11:27:49;0.15;;;0.15;;
49948;SDS011;35840;45.982;8.890;2023-04-24T11:30:17;0.20;;;0.20;;
49948;SDS011;35840;45.982;8.890;2023-04-24T11:32:47;0.40;;;0.20;;
49948;SDS011;35840;45.982;8.890;2023-04-24T11:35:17;0.20;;;0.20;;
49948;SDS011;35840;45.982;8.890;2023-04-24T11:37:46;1.48;;;0.28;;
49948;SDS011;35840;45.982;8.890;2023-04-24T11:40:20;2.50;;;0.40;;
49948;SDS011;35840;45.982;8.890;2023-04-24T11:42:53;2.28;;;0.20;;
49948;SDS011;35840;45.982;8.890;2023-04-24T11:45:23;0.20;;;0.20;;
49948;SDS011;35840;45.982;8.890;2023-04-24T11:47:50;0.55;;;0.38;;
49948;SDS011;35840;45.982;8.890;2023-04-24T11:50:19;1.80;;;0.25;;
49948;SDS011;35840;45.982;8.890;2023-04-24T11:52:49;1.95;;;0.30;;
49948;SDS011;35840;45.982;8.890;2023-04-24T11:57:50;0.50;;;0.30;;
49948;SDS011;35840;45.982;8.890;2023-04-24T12:02:47;0.30;;;0.30;;
49948;SDS011;35840;45.982;8.890;2023-04-24T12:05:27;3.40;;;0.20;;
49948;SDS011;35840;45.982;8.890;2023-04-24T12:07:54;0.38;;;0.38;;
49948;SDS011;35840;45.982;8.890;2023-04-24T12:10:21;0.20;;;0.20;;
49948;SDS011;35840;45.982;8.890;2023-04-24T12:12:50;3.40;;;0.30;;
49948;SDS011;35840;45.982;8.890;2023-04-24T12:15:18;0.88;;;0.30;;
49948;SDS011;35840;45.982;8.890;2023-04-24T12:17:46;0.20;;;0.20;;
49948;SDS011;35840;45.982;8.890;2023-04-24T12:20:13;3.67;;;0.85;;
49948;SDS011;35840;45.982;8.890;2023-04-24T12:22:48;0.13;;;0.13;;
49948;SDS011;35840;45.982;8.890;2023-04-24T12:25:17;0.45;;;0.20;;
49948;SDS011;35840;45.982;8.890;2023-04-24T12:27:45;1.55;;;0.20;;
49948;SDS011;35840;45.982;8.890;2023-04-24T12:30:14;0.20;;;0.20;;
49948;SDS011;35840;45.982;8.890;2023-04-24T12:32:43;0.20;;;0.20;;
49948;SDS011;35840;45.982;8.890;2023-04-24T12:35:12;0.60;;;0.15;;
49948;SDS011;35840;45.982;8.890;2023-04-24T12:37:41;0.20;;;0.20;;
49948;SDS011;35840;45.982;8.890;2023-04-24T12:40:12;0.20;;;0.20;;
49948;SDS011;35840;45.982;8.890;2023-04-24T12:45:15;0.20;;;0.20;;
49948;SDS011;35840;45.982;8.890;2023-04-24T12:47:44;0.20;;;0.20;;
49948;SDS011;35840;45.982;8.890;2023-04-24T12:50:12;0.13;;;0.13;;
49948;SDS011;35840;45.982;8.890;2023-04-24T12:52:41;1.13;;;0.40;;
49948;SDS011;35840;45.982;8.890;2023-04-24T12:55:08;0.17;;;0.17;;
49948;SDS011;35840;45.982;8.890;2023-04-24T12:57:36;0.25;;;0.15;;
49948;SDS011;35840;45.982;8.890;2023-04-24T13:00:05;2.08;;;0.32;;
49948;SDS011;35840;45.982;8.890;2023-04-24T13:02:34;0.55;;;0.20;;
49948;SDS011;35840;45.982;8.890;2023-04-24T13:05:01;0.20;;;0.20;;
49948;SDS011;35840;45.982;8.890;2023-04-24T13:07:28;0.20;;;0.20;;
49948;SDS011;35840;45.982;8.890;2023-04-24T13:09:55;0.25;;;0.22;;
49948;SDS011;35840;45.982;8.890;2023-04-24T13:12:24;0.20;;;0.20;;
49948;SDS011;35840;45.982;8.890;2023-04-24T13:14:52;0.38;;;0.30;;
49948;SDS011;35840;45.982;8.890;2023-04-24T13:17:19;0.20;;;0.10;;
49948;SDS011;35840;45.982;8.890;2023-04-24T13:19:46;1.00;;;0.30;;
49948;SDS011;35840;45.982;8.890;2023-04-24T13:22:16;0.32;;;0.20;;
49948;SDS011;35840;45.982;8.890;2023-04-24T13:24:44;0.20;;;0.20;;
49948;SDS011;35840;45.982;8.890;2023-04-24T13:27:11;0.30;;;0.30;;
49948;SDS011;35840;45.982;8.890;2023-04-24T13:29:38;0.25;;;0.25;;
49948;SDS011;35840;45.982;8.890;2023-04-24T13:32:05;2.53;;;0.20;;
49948;SDS011;35840;45.982;8.890;2023-04-24T13:34:32;0.20;;;0.20;;
49948;SDS011;35840;45.982;8.890;2023-04-24T13:37:00;1.00;;;0.20;;
49948;SDS011;35840;45.982;8.890;2023-04-24T13:39:28;0.40;;;0.40;;
49948;SDS011;35840;45.982;8.890;2023-04-24T13:41:55;0.43;;;0.22;;
49948;SDS011;35840;45.982;8.890;2023-04-24T13:44:22;2.97;;;0.25;;
49948;SDS011;35840;45.982;8.890;2023-04-24T13:46:51;0.38;;;0.25;;
49948;SDS011;35840;45.982;8.890;2023-04-24T13:49:20;0.55;;;0.25;;
49948;SDS011;35840;45.982;8.890;2023-04-24T13:51:47;0.20;;;0.20;;
49948;SDS011;35840;45.982;8.890;2023-04-24T13:54:14;0.38;;;0.38;;
49948;SDS011;35840;45.982;8.890;2023-04-24T13:56:41;2.17;;;0.32;;
49948;SDS011;35840;45.982;8.890;2023-04-24T13:59:08;0.35;;;0.25;;
49948;SDS011;35840;45.982;8.890;2023-04-24T14:01:35;0.32;;;0.30;;
49948;SDS011;35840;45.982;8.890;2023-04-24T14:04:02;0.30;;;0.28;;
49948;SDS011;35840;45.982;8.890;2023-04-24T14:06:29;1.70;;;0.52;;
49948;SDS011;35840;45.982;8.890;2023-04-24T14:08:56;0.20;;;0.20;;
49948;SDS011;35840;45.982;8.890;2023-04-24T14:11:22;0.20;;;0.20;;
49948;SDS011;35840;45.982;8.890;2023-04-24T14:13:49;0.10;;;0.10;;
49948;SDS011;35840;45.982;8.890;2023-04-24T14:16:16;0.20;;;0.20;;
49948;SDS011;35840;45.982;8.890;2023-04-24T14:18:43;0.30;;;0.30;;
49948;SDS011;35840;45.982;8.890;2023-04-24T14:21:10;0.20;;;0.20;;
49948;SDS011;35840;45.982;8.890;2023-04-24T14:23:36;0.20;;;0.20;;
49948;SDS011;35840;45.982;8.890;2023-04-24T14:26:03;0.35;;;0.20;;
49948;SDS011;35840;45.982;8.890;2023-04-24T14:28:30;0.20;;;0.20;;
49948;SDS011;35840;45.982;8.890;2023-04-24T14:30:57;0.75;;;0.30;;
49948;SDS011;35840;45.982;8.890;2023-04-24T14:33:24;0.25;;;0.25;;
49948;SDS011;35840;45.982;8.890;2023-04-24T14:35:50;2.25;;;0.40;;
49948;SDS011;35840;45.982;8.890;2023-04-24T14:38:17;0.20;;;0.20;;
49948;SDS011;35840;45.982;8.890;2023-04-24T14:40:44;0.90;;;0.20;;
49948;SDS011;35840;45.982;8.890;2023-04-24T14:43:31;0.30;;;0.30;;
49948;SDS011;35840;45.982;8.890;2023-04-24T14:45:58;0.90;;;0.30;;
49948;SDS011;35840;45.982;8.890;2023-04-24T14:48:25;0.20;;;0.20;;
49948;SDS011;35840;45.982;8.890;2023-04-24T14:50:52;0.30;;;0.30;;
49948;SDS011;35840;45.982;8.890;2023-04-24T14:53:19;0.30;;;0.25;;
49948;SDS011;35840;45.982;8.890;2023-04-24T14:55:45;0.30;;;0.30;;
49948;SDS011;35840;45.982;8.890;2023-04-24T14:58:12;0.80;;;0.20;;
49948;SDS011;35840;45.982;8.890;2023-04-24T15:00:39;0.30;;;0.30;;
49948;SDS011;35840;45.982;8.890;2023-04-24T15:03:05;0.45;;;0.30;;
49948;SDS011;35840;45.982;8.890;2023-04-24T15:05:33;0.63;;;0.20;;
49948;SDS011;35840;45.982;8.890;2023-04-24T15:08:01;1.90;;;0.30;;